Time;durP1;ratioP1;P1;durP2;ratioP2;P2;SDS_P1;SDS_P2;PMS_P1;PMS_P2;Temp;Humidity;BMP_temperature;BMP_pressure;BME280_temperature;BME280_humidity;BME280_pressure;Samples;Min_cycle;Max_cycle;Signal;HPM_P1;HPM_P2
2023/01/13 00:01:16;;;;;;;3.40;0.60;;;9.20;99.90;;;;;;5052528;28;20167;-76
2023/01/13 00:03:42;;;;;;;3.67;0.85;;;9.10;99.90;;;;;;5053782;28;20037;-76
2023/01/13 00:06:12;;;;;;;8.18;1.13;;;9.20;99.90;;;;;;5055868;28;20117;-77
2023/01/13 00:08:38;;;;;;;6.05;1.48;;;9.10;99.90;;;;;;5061088;28;20054;-76
2023/01/13 00:11:04;;;;;;;3.70;0.90;;;9.10;99.90;;;;;;5054836;28;20190;-76
2023/01/13 00:13:31;;;;;;;2.92;1.05;;;9.10;99.90;;;;;;5075880;28;20051;-76
2023/01/13 00:16:02;;;;;;;3.63;0.93;;;9.00;99.90;;;;;;5076495;28;20040;-76
2023/01/13 00:18:28;;;;;;;10.70;2.13;;;9.00;99.90;;;;;;5078685;28;20043;-77
2023/01/13 00:21:04;;;;;;;3.67;1.20;;;8.90;99.90;;;;;;5074081;28;20056;-76
2023/01/13 00:23:31;;;;;;;8.60;1.50;;;8.80;99.90;;;;;;5057451;28;20032;-77
2023/01/13 00:25:58;;;;;;;8.35;1.02;;;8.90;99.90;;;;;;5075731;28;20032;-76
2023/01/13 00:28:24;;;;;;;3.05;1.10;;;8.80;99.90;;;;;;5079547;28;20035;-76
2023/01/13 00:30:50;;;;;;;4.90;1.30;;;8.80;99.90;;;;;;5055037;28;20040;-76
2023/01/13 00:33:15;;;;;;;7.78;2.10;;;8.80;99.90;;;;;;5059958;28;20482;-76
2023/01/13 00:35:41;;;;;;;7.38;1.10;;;8.80;99.90;;;;;;5079049;28;20036;-76
2023/01/13 00:38:06;;;;;;;5.15;1.60;;;8.80;99.90;;;;;;5075013;28;20040;-76
2023/01/13 00:40:32;;;;;;;11.48;1.60;;;8.70;99.90;;;;;;5057589;28;20101;-76
2023/01/13 00:45:42;;;;;;;5.78;1.00;;;8.80;99.90;;;;;;5078223;28;20057;-76
2023/01/13 00:48:08;;;;;;;8.82;1.73;;;8.70;99.90;;;;;;5074687;28;20481;-76
2023/01/13 00:50:34;;;;;;;4.20;0.98;;;8.70;99.90;;;;;;5056763;28;20047;-76
2023/01/13 00:52:59;;;;;;;3.03;0.90;;;8.60;99.90;;;;;;5079453;28;20083;-76
2023/01/13 00:55:26;;;;;;;13.63;1.83;;;8.60;99.90;;;;;;5069256;28;20048;-76
2023/01/13 00:57:51;;;;;;;8.10;1.63;;;8.60;99.90;;;;;;5073806;28;20036;-76
2023/01/13 01:00:17;;;;;;;6.07;1.38;;;8.60;99.90;;;;;;5068955;28;20092;-76
2023/01/13 01:02:43;;;;;;;4.13;1.25;;;8.50;99.90;;;;;;5068619;28;20614;-76
2023/01/13 01:05:09;;;;;;;5.38;0.90;;;8.50;99.90;;;;;;5074355;28;20040;-76
2023/01/13 01:07:35;;;;;;;4.93;1.45;;;8.50;99.90;;;;;;5075055;28;20055;-77
2023/01/13 01:10:00;;;;;;;8.38;1.63;;;8.50;99.90;;;;;;5060800;28;20055;-76
2023/01/13 01:12:26;;;;;;;4.68;1.13;;;8.50;99.90;;;;;;5070253;28;20041;-76
2023/01/13 01:14:52;;;;;;;6.90;1.05;;;8.40;99.90;;;;;;5071343;28;20409;-77
2023/01/13 01:17:17;;;;;;;4.05;1.30;;;8.40;99.90;;;;;;5050133;28;20067;-76
2023/01/13 01:19:43;;;;;;;6.18;1.52;;;8.40;99.90;;;;;;5050605;28;20405;-76
2023/01/13 01:22:08;;;;;;;9.77;2.50;;;8.40;99.90;;;;;;5069156;28;20036;-76
2023/01/13 01:24:34;;;;;;;5.00;1.48;;;8.40;99.90;;;;;;5054414;28;20036;-76
2023/01/13 01:26:59;;;;;;;5.80;1.65;;;8.40;99.90;;;;;;5079367;28;20494;-76
2023/01/13 01:29:25;;;;;;;8.35;1.77;;;8.40;99.90;;;;;;5066444;28;20111;-76
2023/01/13 01:31:51;;;;;;;8.00;1.10;;;8.40;99.90;;;;;;5068828;28;20036;-76
2023/01/13 01:34:16;;;;;;;5.60;1.75;;;8.40;99.90;;;;;;5049253;28;20040;-76
2023/01/13 01:36:42;;;;;;;5.05;1.17;;;8.40;99.90;;;;;;5054922;28;20041;-76
2023/01/13 01:39:09;;;;;;;6.50;1.35;;;8.40;99.90;;;;;;5070466;28;20171;-76
2023/01/13 01:41:35;;;;;;;3.75;1.10;;;8.40;99.90;;;;;;5062209;28;20379;-76
2023/01/13 01:44:38;;;;;;;6.70;1.45;;;8.40;99.90;;;;;;5069145;28;20032;-76
2023/01/13 01:47:04;;;;;;;2.72;0.75;;;8.40;99.90;;;;;;5066327;28;20571;-77
2023/01/13 01:49:34;;;;;;;5.10;1.58;;;8.40;99.90;;;;;;5065519;28;20043;-76
2023/01/13 01:52:21;;;;;;;1.77;0.73;;;8.40;99.90;;;;;;5050117;28;20094;-76
2023/01/13 01:54:55;;;;;;;5.18;1.02;;;8.40;99.90;;;;;;5050416;28;20842;-76
2023/01/13 01:57:39;;;;;;;3.25;0.85;;;8.40;99.90;;;;;;5071998;28;20730;-76
2023/01/13 02:00:06;;;;;;;2.40;0.52;;;8.40;99.90;;;;;;5058600;28;20574;-76
2023/01/13 02:02:32;;;;;;;11.30;1.90;;;8.40;99.90;;;;;;5066369;28;20105;-76
2023/01/13 02:04:58;;;;;;;4.20;1.02;;;8.30;99.90;;;;;;5068687;28;20037;-76
2023/01/13 02:07:27;;;;;;;4.10;1.45;;;8.30;99.90;;;;;;5051334;28;20052;-76
2023/01/13 02:09:54;;;;;;;7.13;1.42;;;8.30;99.90;;;;;;5066102;28;20552;-76
2023/01/13 02:12:30;;;;;;;6.20;1.85;;;8.30;99.90;;;;;;5054318;28;20044;-76
2023/01/13 02:15:12;;;;;;;3.75;1.00;;;8.30;99.90;;;;;;5069958;28;20036;-76
2023/01/13 02:18:04;;;;;;;5.10;0.63;;;8.30;99.90;;;;;;5087050;28;20048;-76
2023/01/13 02:21:08;;;;;;;12.73;1.38;;;8.30;99.90;;;;;;5057506;28;20032;-76
2023/01/13 02:27:18;;;;;;;3.03;1.00;;;8.30;99.90;;;;;;5068117;28;20048;-76
2023/01/13 02:33:29;;;;;;;5.60;0.70;;;8.30;99.90;;;;;;4971060;28;20074;-76
2023/01/13 02:36:14;;;;;;;6.13;1.15;;;8.40;99.90;;;;;;5055607;28;20051;-76
2023/01/13 02:38:52;;;;;;;5.53;2.17;;;8.40;99.90;;;;;;5074666;28;20052;-76
2023/01/13 02:44:15;;;;;;;3.58;0.88;;;8.30;99.90;;;;;;5070017;28;20044;-76
2023/01/13 02:46:44;;;;;;;8.18;1.45;;;8.30;99.90;;;;;;5076075;28;20075;-76
2023/01/13 02:49:18;;;;;;;6.93;1.33;;;8.30;99.90;;;;;;5071819;28;20040;-76
2023/01/13 02:51:47;;;;;;;5.45;0.95;;;8.20;99.90;;;;;;5058893;28;20054;-76
2023/01/13 02:54:18;;;;;;;3.67;0.85;;;8.20;99.90;;;;;;5070180;28;20363;-76
2023/01/13 02:56:47;;;;;;;3.28;0.93;;;8.20;99.90;;;;;;5060385;28;20071;-76
2023/01/13 02:59:13;;;;;;;5.07;1.27;;;8.20;99.90;;;;;;5093841;28;20071;-76
2023/01/13 03:01:40;;;;;;;3.22;0.95;;;8.20;99.90;;;;;;5073937;28;20119;-76
2023/01/13 03:04:46;;;;;;;13.85;1.98;;;8.20;99.90;;;;;;5075357;28;20033;-76
2023/01/13 03:07:40;;;;;;;4.40;1.42;;;8.20;99.90;;;;;;5068898;28;20502;-76
2023/01/13 03:10:26;;;;;;;7.05;1.00;;;8.20;99.90;;;;;;5061691;28;20059;-76
2023/01/13 03:13:29;;;;;;;1.77;0.55;;;8.20;99.90;;;;;;5076462;28;20082;-76
2023/01/13 03:16:22;;;;;;;7.68;1.77;;;8.20;99.90;;;;;;5070639;28;20044;-76
2023/01/13 03:18:50;;;;;;;4.78;0.68;;;8.20;99.90;;;;;;5089449;28;20056;-76
2023/01/13 03:21:34;;;;;;;3.08;1.40;;;8.20;99.90;;;;;;5057562;28;20037;-76
2023/01/13 03:24:06;;;;;;;9.93;1.35;;;8.20;99.90;;;;;;5069662;28;20669;-76
2023/01/13 03:26:39;;;;;;;5.75;1.33;;;8.20;99.90;;;;;;5071593;28;20202;-76
2023/01/13 03:29:35;;;;;;;4.70;1.25;;;8.20;99.90;;;;;;5077419;28;20033;-76
2023/01/13 03:32:08;;;;;;;3.42;0.90;;;8.30;99.90;;;;;;5056712;28;20036;-76
2023/01/13 03:34:59;;;;;;;6.78;1.95;;;8.20;99.90;;;;;;5055390;28;20045;-76
2023/01/13 03:37:31;;;;;;;8.20;1.42;;;8.20;99.90;;;;;;5077661;28;20648;-76
2023/01/13 03:40:01;;;;;;;4.07;1.13;;;8.20;99.90;;;;;;5052859;28;20055;-76
2023/01/13 03:42:31;;;;;;;10.48;2.08;;;8.20;99.90;;;;;;5073177;28;20628;-76
2023/01/13 03:45:11;;;;;;;11.55;1.38;;;8.20;99.90;;;;;;5060220;28;20040;-76
2023/01/13 03:47:56;;;;;;;3.45;0.88;;;8.20;99.90;;;;;;5073425;28;20036;-76
2023/01/13 03:50:49;;;;;;;6.00;0.82;;;8.20;99.90;;;;;;5078117;28;20409;-77
2023/01/13 03:54:07;;;;;;;5.50;1.58;;;8.20;99.90;;;;;;5073388;28;20070;-76
2023/01/13 03:56:38;;;;;;;12.35;1.00;;;8.20;99.90;;;;;;5062673;28;20047;-76
2023/01/13 03:59:09;;;;;;;4.35;1.60;;;8.20;99.90;;;;;;5076922;28;20032;-76
2023/01/13 04:01:42;;;;;;;5.90;1.45;;;8.20;99.90;;;;;;5051379;28;20334;-77
2023/01/13 04:04:47;;;;;;;5.50;1.13;;;8.20;99.90;;;;;;5054714;28;20037;-76
2023/01/13 04:07:37;;;;;;;2.60;0.77;;;8.30;99.90;;;;;;5061205;28;20040;-76
2023/01/13 04:10:07;;;;;;;5.15;1.30;;;8.30;99.90;;;;;;5071788;28;20044;-76
2023/01/13 04:12:59;;;;;;;4.85;1.15;;;8.30;99.90;;;;;;5070400;28;20540;-76
2023/01/13 04:15:27;;;;;;;4.13;1.10;;;8.30;99.90;;;;;;5050010;28;21680;-76
2023/01/13 04:18:00;;;;;;;6.07;1.48;;;8.30;99.90;;;;;;5074316;28;20110;-76
2023/01/13 04:20:25;;;;;;;4.55;1.23;;;8.30;99.90;;;;;;5085992;28;20043;-76
2023/01/13 04:22:51;;;;;;;3.05;0.93;;;8.30;99.90;;;;;;5071997;28;20041;-76
2023/01/13 04:25:16;;;;;;;7.25;1.30;;;8.30;99.90;;;;;;5072951;28;20028;-76
2023/01/13 04:27:42;;;;;;;5.97;1.05;;;8.30;99.90;;;;;;5057952;28;20702;-76
2023/01/13 04:30:08;;;;;;;6.25;1.17;;;8.30;99.90;;;;;;5058455;28;20032;-76
2023/01/13 04:32:34;;;;;;;4.38;1.58;;;8.30;99.90;;;;;;5074247;28;20036;-76
2023/01/13 04:34:59;;;;;;;5.00;1.50;;;8.30;99.90;;;;;;5072438;28;20045;-76
2023/01/13 04:37:25;;;;;;;8.57;1.30;;;8.30;99.90;;;;;;5072939;28;20032;-77
2023/01/13 04:39:50;;;;;;;4.05;1.23;;;8.30;99.90;;;;;;5056841;28;20041;-76
2023/01/13 04:42:16;;;;;;;6.53;1.25;;;8.30;99.90;;;;;;5054525;28;20056;-77
2023/01/13 04:44:42;;;;;;;8.43;2.05;;;8.30;99.90;;;;;;5072424;28;20116;-76
2023/01/13 04:47:07;;;;;;;7.38;1.25;;;8.30;99.90;;;;;;5071969;28;21058;-76
2023/01/13 04:49:33;;;;;;;3.95;1.63;;;8.30;99.90;;;;;;5072091;28;20873;-76
2023/01/13 04:51:58;;;;;;;8.20;1.60;;;8.30;99.90;;;;;;5051229;28;20069;-76
2023/01/13 04:54:24;;;;;;;8.38;1.60;;;8.30;99.90;;;;;;5051614;28;20036;-76
2023/01/13 04:56:50;;;;;;;7.57;1.20;;;8.30;99.90;;;;;;5073754;28;20044;-76
2023/01/13 04:59:15;;;;;;;3.80;0.90;;;8.20;99.90;;;;;;5076312;28;20051;-76
2023/01/13 05:01:41;;;;;;;10.65;2.10;;;8.20;99.90;;;;;;5072424;28;20039;-76
2023/01/13 05:04:07;;;;;;;7.90;1.25;;;8.20;99.90;;;;;;5071976;28;20058;-76
2023/01/13 05:06:33;;;;;;;5.50;1.55;;;8.20;99.90;;;;;;5052002;28;20135;-76
2023/01/13 05:08:58;;;;;;;9.18;1.27;;;8.20;99.90;;;;;;5068473;28;20186;-76
2023/01/13 05:17:02;;;;;;;5.18;1.02;;;8.20;99.90;;;;;;5073708;28;20418;-76
2023/01/13 05:19:33;;;;;;;5.85;1.35;;;8.20;99.90;;;;;;5069548;28;20040;-76
2023/01/13 05:27:29;;;;;;;9.63;1.35;;;8.30;99.90;;;;;;5069865;28;20040;-76
2023/01/13 05:29:55;;;;;;;5.53;1.13;;;8.30;99.90;;;;;;5073187;28;20064;-76
2023/01/13 05:32:21;;;;;;;6.03;1.35;;;8.30;99.90;;;;;;5067419;28;20105;-76
2023/01/13 05:34:47;;;;;;;8.35;1.52;;;8.30;99.90;;;;;;5081271;28;20042;-76
2023/01/13 05:37:12;;;;;;;4.93;1.00;;;8.20;99.90;;;;;;5051752;28;20127;-76
2023/01/13 05:45:08;;;;;;;6.45;1.52;;;8.20;99.90;;;;;;5073781;28;20044;-76
2023/01/13 05:47:34;;;;;;;5.35;0.80;;;8.20;99.90;;;;;;5052715;28;20050;-76
2023/01/13 05:49:59;;;;;;;6.10;1.17;;;8.10;99.90;;;;;;5065675;28;20504;-77
2023/01/13 05:52:25;;;;;;;7.53;1.45;;;8.10;99.90;;;;;;5051956;28;20049;-76
2023/01/13 05:54:51;;;;;;;8.55;1.10;;;8.10;99.90;;;;;;5070010;28;20037;-76
2023/01/13 05:57:17;;;;;;;8.10;1.17;;;8.10;99.90;;;;;;5070433;28;20051;-77
2023/01/13 05:59:42;;;;;;;5.05;1.45;;;8.10;99.90;;;;;;5072540;28;20044;-76
2023/01/13 06:02:08;;;;;;;5.90;0.93;;;8.10;99.90;;;;;;5068391;28;20060;-77
2023/01/13 06:04:34;;;;;;;7.45;1.55;;;8.10;99.90;;;;;;5079888;28;20651;-76
2023/01/13 06:06:59;;;;;;;6.30;1.05;;;8.10;99.90;;;;;;5052489;28;20039;-76
2023/01/13 06:09:25;;;;;;;6.00;1.00;;;8.10;99.90;;;;;;5069135;28;20143;-76
2023/01/13 06:11:50;;;;;;;3.00;0.65;;;8.10;99.90;;;;;;5068266;28;20048;-76
2023/01/13 06:14:16;;;;;;;2.55;0.88;;;8.10;99.90;;;;;;5077084;28;20509;-77
2023/01/13 06:16:44;;;;;;;2.53;0.45;;;8.10;99.90;;;;;;5049116;28;20483;-76
2023/01/13 06:19:12;;;;;;;4.55;1.38;;;8.10;99.90;;;;;;5059921;28;20037;-76
2023/01/13 06:21:42;;;;;;;16.30;1.85;;;8.20;99.90;;;;;;5069237;28;20041;-76
2023/01/13 06:24:08;;;;;;;2.60;0.93;;;8.20;99.90;;;;;;5074703;28;21202;-76
2023/01/13 06:26:37;;;;;;;4.07;1.02;;;8.20;99.90;;;;;;5071107;28;20418;-76
2023/01/13 06:29:03;;;;;;;3.83;1.35;;;8.30;99.90;;;;;;5074467;28;20036;-76
2023/01/13 06:31:30;;;;;;;5.93;1.52;;;8.20;99.90;;;;;;5057270;28;20086;-76
2023/01/13 06:34:04;;;;;;;5.32;0.80;;;8.30;99.90;;;;;;5055639;28;20436;-76
2023/01/13 06:36:34;;;;;;;1.13;0.52;;;8.20;99.90;;;;;;5072637;28;20074;-77
2023/01/13 06:39:02;;;;;;;4.13;0.60;;;8.30;99.90;;;;;;5064413;28;20033;-76
2023/01/13 06:44:15;;;;;;;2.15;0.98;;;8.30;99.90;;;;;;5076987;28;20093;-76
2023/01/13 06:46:41;;;;;;;13.02;1.77;;;8.30;99.90;;;;;;5066043;28;20082;-77
2023/01/13 06:49:07;;;;;;;7.10;2.13;;;8.30;99.90;;;;;;5071991;28;20028;-77
2023/01/13 06:51:32;;;;;;;3.25;1.73;;;8.30;99.90;;;;;;5071762;28;20559;-77
2023/01/13 06:53:58;;;;;;;2.20;0.98;;;8.30;99.90;;;;;;5068798;28;20040;-77
2023/01/13 06:56:24;;;;;;;2.13;0.85;;;8.30;99.90;;;;;;5078821;28;20064;-76
2023/01/13 06:58:49;;;;;;;4.82;1.48;;;8.30;99.90;;;;;;5071474;28;20401;-78
2023/01/13 07:01:15;;;;;;;4.97;0.77;;;8.20;99.90;;;;;;5067992;28;20044;-77
2023/01/13 07:03:40;;;;;;;3.60;0.70;;;8.20;99.90;;;;;;5062444;28;20047;-76
2023/01/13 07:06:06;;;;;;;1.58;0.68;;;8.20;99.90;;;;;;5073050;28;20393;-76
2023/01/13 07:08:32;;;;;;;2.17;0.70;;;8.20;99.90;;;;;;5095000;28;20136;-76
2023/01/13 07:11:00;;;;;;;7.93;1.30;;;8.20;99.90;;;;;;5082528;28;20467;-76
2023/01/13 07:16:09;;;;;;;2.72;0.80;;;8.20;99.90;;;;;;5070627;28;20452;-76
2023/01/13 07:18:36;;;;;;;3.75;0.47;;;8.20;99.90;;;;;;5068604;28;20039;-76
2023/01/13 07:21:05;;;;;;;2.83;0.65;;;8.20;99.90;;;;;;5069985;28;20036;-77
2023/01/13 07:23:33;;;;;;;3.40;0.73;;;8.30;99.90;;;;;;5088526;27;20036;-76
2023/01/13 07:25:59;;;;;;;2.80;1.13;;;8.20;99.90;;;;;;5105023;27;20044;-76
2023/01/13 07:28:26;;;;;;;1.13;0.60;;;8.20;99.90;;;;;;5080242;28;20091;-77
2023/01/13 07:30:52;;;;;;;2.00;1.00;;;8.20;99.90;;;;;;5071016;28;20101;-77
2023/01/13 07:33:18;;;;;;;6.95;1.45;;;8.20;99.90;;;;;;5075443;28;20124;-76
2023/01/13 07:35:45;;;;;;;2.88;0.75;;;8.20;99.90;;;;;;5071837;28;20043;-78
2023/01/13 07:38:10;;;;;;;2.33;0.68;;;8.10;99.90;;;;;;5050599;28;20054;-77
2023/01/13 07:40:38;;;;;;;2.88;0.50;;;8.10;99.90;;;;;;5052563;28;20043;-77
2023/01/13 07:45:48;;;;;;;2.15;0.40;;;8.00;99.90;;;;;;5065912;28;20119;-77
2023/01/13 07:48:13;;;;;;;0.98;0.43;;;8.00;99.90;;;;;;5082495;28;20445;-78
2023/01/13 07:50:39;;;;;;;2.85;0.70;;;8.00;99.90;;;;;;5072670;28;20071;-78
2023/01/13 07:53:04;;;;;;;1.35;0.38;;;7.90;99.90;;;;;;5070100;28;20119;-78
2023/01/13 07:55:30;;;;;;;2.95;0.70;;;7.90;99.90;;;;;;5090863;27;20134;-78
2023/01/13 07:57:56;;;;;;;2.08;0.65;;;7.90;99.90;;;;;;5053796;28;20093;-78
2023/01/13 08:00:22;;;;;;;2.42;0.88;;;7.80;99.90;;;;;;5069507;28;20031;-78
2023/01/13 08:02:47;;;;;;;1.92;0.57;;;7.80;99.90;;;;;;5071442;28;20036;-78
2023/01/13 08:05:13;;;;;;;5.38;0.73;;;7.80;99.90;;;;;;5069372;28;20039;-77
2023/01/13 08:07:39;;;;;;;3.45;0.68;;;7.70;99.90;;;;;;5069806;28;20056;-78
2023/01/13 08:10:05;;;;;;;2.83;0.90;;;7.70;99.90;;;;;;5072232;28;20050;-78
2023/01/13 08:15:15;;;;;;;8.15;0.77;;;7.70;99.90;;;;;;5070087;28;20044;-78
2023/01/13 08:17:41;;;;;;;2.75;0.65;;;7.70;99.90;;;;;;5073738;28;20043;-78
2023/01/13 08:20:07;;;;;;;8.13;1.08;;;7.70;99.90;;;;;;5078412;28;20091;-78
2023/01/13 08:22:33;;;;;;;3.78;1.08;;;7.70;99.90;;;;;;5072554;28;21628;-78
2023/01/13 08:24:59;;;;;;;2.55;0.65;;;7.70;99.90;;;;;;5072766;28;20032;-78
2023/01/13 08:27:25;;;;;;;5.45;1.20;;;7.70;99.90;;;;;;5062765;28;20085;-78
2023/01/13 08:29:50;;;;;;;4.05;0.80;;;7.70;99.90;;;;;;5068935;28;20385;-78
2023/01/13 08:32:16;;;;;;;4.85;0.88;;;7.70;99.90;;;;;;5103659;27;20162;-78
2023/01/13 08:34:41;;;;;;;2.25;0.98;;;7.70;99.90;;;;;;5069982;28;20093;-78
2023/01/13 08:37:07;;;;;;;2.67;0.70;;;7.70;99.90;;;;;;5070118;28;20037;-78
2023/01/13 08:39:34;;;;;;;2.15;0.90;;;7.60;99.90;;;;;;5051985;28;20036;-78
2023/01/13 08:42:01;;;;;;;1.40;0.60;;;7.70;99.90;;;;;;5071915;28;20097;-78
2023/01/13 08:44:29;;;;;;;5.93;1.10;;;7.70;99.90;;;;;;5067982;28;20071;-77
2023/01/13 08:46:55;;;;;;;6.53;0.73;;;7.70;99.90;;;;;;5056348;28;20359;-77
2023/01/13 08:49:22;;;;;;;1.98;0.77;;;7.60;99.90;;;;;;5067565;28;20112;-77
2023/01/13 08:51:48;;;;;;;9.18;0.75;;;7.70;99.90;;;;;;5072320;28;20072;-78
2023/01/13 08:54:14;;;;;;;2.10;0.98;;;7.70;99.90;;;;;;5074682;28;20040;-78
2023/01/13 08:56:41;;;;;;;4.30;0.82;;;7.70;99.90;;;;;;5072113;28;20047;-78
2023/01/13 08:59:12;;;;;;;4.90;0.55;;;7.70;99.90;;;;;;5068916;28;20060;-78
2023/01/13 09:01:38;;;;;;;1.65;0.47;;;7.70;99.90;;;;;;5086090;27;20055;-78
2023/01/13 09:04:05;;;;;;;0.88;0.45;;;7.70;99.90;;;;;;5073728;28;20032;-77
2023/01/13 09:06:30;;;;;;;4.95;1.02;;;7.70;99.90;;;;;;5068100;28;20068;-88
2023/01/13 09:08:57;;;;;;;5.53;0.93;;;7.80;99.90;;;;;;5079910;28;20134;-78
2023/01/13 09:14:23;;;;;;;4.13;0.98;;;7.70;99.90;;;;;;5079838;28;20049;-79
2023/01/13 09:16:49;;;;;;;10.73;1.05;;;7.80;99.90;;;;;;5070150;28;20040;-78
2023/01/13 09:19:14;;;;;;;9.57;1.65;;;7.80;99.90;;;;;;5054446;28;20035;-77
2023/01/13 09:21:40;;;;;;;4.57;1.20;;;7.80;99.90;;;;;;5069659;28;20044;-78
2023/01/13 09:24:06;;;;;;;6.75;1.25;;;7.80;99.90;;;;;;5050760;28;21108;-77
2023/01/13 09:26:32;;;;;;;4.95;1.42;;;7.80;99.90;;;;;;5070075;28;20047;-78
2023/01/13 09:28:58;;;;;;;4.45;1.20;;;7.80;99.90;;;;;;5073612;28;20028;-77
2023/01/13 09:31:23;;;;;;;5.57;0.80;;;7.90;99.90;;;;;;5067841;28;20081;-77
2023/01/13 09:36:33;;;;;;;10.07;2.45;;;7.90;99.90;;;;;;5073538;28;20390;-78
2023/01/13 09:38:58;;;;;;;1.77;0.70;;;7.90;99.90;;;;;;5073064;28;20055;-77
2023/01/13 09:44:18;;;;;;;4.72;0.55;;;7.80;99.90;;;;;;5069234;28;20084;-80
2023/01/13 09:46:52;;;;;;;3.47;0.85;;;7.80;99.90;;;;;;5061415;28;20114;-74
2023/01/13 09:49:44;;;;;;;4.82;1.30;;;7.90;99.90;;;;;;5101567;27;20046;-81
2023/01/13 09:52:22;;;;;;;5.18;0.80;;;7.80;99.90;;;;;;5057720;28;20056;-79
2023/01/13 09:55:01;;;;;;;6.55;1.10;;;7.80;99.90;;;;;;5079020;28;20046;-79
2023/01/13 09:57:28;;;;;;;12.88;2.05;;;7.80;99.90;;;;;;5051159;28;20119;-80
2023/01/13 09:59:56;;;;;;;3.25;0.68;;;7.90;99.90;;;;;;5050836;28;20157;-79
2023/01/13 10:02:54;;;;;;;6.30;0.57;;;7.80;99.90;;;;;;5065984;28;20039;-79
2023/01/13 10:05:43;;;;;;;8.07;1.45;;;7.80;99.90;;;;;;5038337;28;20048;-79
2023/01/13 10:08:29;;;;;;;9.50;1.13;;;7.80;99.90;;;;;;5058010;28;20055;-79
2023/01/13 10:13:12;;;;;;;5.43;1.08;;;7.80;99.90;;;;;;5060768;28;20033;-80
2023/01/13 10:13:50;;;;;;;3.00;0.82;;;7.80;99.90;;;;;;5069393;28;20059;-80
2023/01/13 10:16:40;;;;;;;11.27;1.38;;;7.80;99.90;;;;;;5053684;28;20094;-80
2023/01/13 10:19:12;;;;;;;4.35;1.35;;;7.80;99.90;;;;;;5065144;28;20242;-80
2023/01/13 10:21:49;;;;;;;3.33;0.70;;;7.80;99.90;;;;;;5085473;28;20711;-80
2023/01/13 10:24:29;;;;;;;3.30;1.00;;;7.80;99.90;;;;;;5068275;28;20075;-80
2023/01/13 10:27:17;;;;;;;3.25;0.70;;;7.80;99.90;;;;;;5064689;28;20040;-80
2023/01/13 10:29:43;;;;;;;8.13;1.02;;;7.80;99.90;;;;;;5086279;28;20029;-80
2023/01/13 10:32:09;;;;;;;3.50;1.08;;;7.80;99.90;;;;;;5065721;28;20066;-81
2023/01/13 10:34:57;;;;;;;3.78;0.88;;;7.90;99.90;;;;;;5078392;28;20054;-79
2023/01/13 10:37:25;;;;;;;3.67;0.95;;;7.80;99.90;;;;;;5067155;28;20055;-91
2023/01/13 10:39:56;;;;;;;3.05;0.98;;;7.80;99.90;;;;;;5062122;28;20047;-81
2023/01/13 10:42:23;;;;;;;3.88;0.80;;;7.80;99.90;;;;;;5066935;28;20068;-84
2023/01/13 10:44:57;;;;;;;4.82;0.90;;;7.80;99.90;;;;;;5050942;28;20047;-78
2023/01/13 10:47:26;;;;;;;3.22;1.00;;;7.80;99.90;;;;;;5067935;28;20032;-79
2023/01/13 10:50:10;;;;;;;4.63;0.85;;;7.80;99.90;;;;;;5052147;28;20499;-80
2023/01/13 10:52:54;;;;;;;6.60;0.65;;;7.90;99.90;;;;;;5067863;28;20141;-80
2023/01/13 10:55:37;;;;;;;3.35;1.25;;;7.80;99.90;;;;;;5071003;28;20482;-77
2023/01/13 10:58:17;;;;;;;4.00;0.60;;;7.90;99.90;;;;;;5057844;28;20036;-80
2023/01/13 11:00:44;;;;;;;2.78;1.02;;;7.90;99.90;;;;;;5058693;28;20366;-76
2023/01/13 11:03:14;;;;;;;4.03;1.27;;;7.90;99.90;;;;;;5055037;28;20029;-80
2023/01/13 11:05:56;;;;;;;5.15;0.82;;;7.90;99.90;;;;;;5069037;28;20040;-80
2023/01/13 11:08:39;;;;;;;9.23;1.33;;;7.90;99.90;;;;;;5056097;28;20105;-82
2023/01/13 11:11:25;;;;;;;6.13;1.30;;;7.90;99.90;;;;;;5073740;28;20230;-80
2023/01/13 11:16:42;;;;;;;8.43;2.03;;;7.90;99.90;;;;;;5068092;28;20500;-80
2023/01/13 11:19:14;;;;;;;9.40;0.90;;;7.90;99.90;;;;;;5071756;28;20051;-80
2023/01/13 11:21:50;;;;;;;5.50;1.35;;;7.90;99.90;;;;;;5074209;28;20409;-80
2023/01/13 11:24:50;;;;;;;2.13;0.73;;;8.00;99.90;;;;;;5060849;28;20044;-81
2023/01/13 11:27:39;;;;;;;4.00;1.23;;;8.00;99.90;;;;;;5067776;28;20051;-80
2023/01/13 11:30:23;;;;;;;3.88;1.08;;;8.00;99.90;;;;;;5067941;28;20032;-79
2023/01/13 11:32:52;;;;;;;3.47;0.85;;;8.00;99.90;;;;;;5070448;28;20093;-80
2023/01/13 11:35:20;;;;;;;2.97;0.73;;;8.00;99.90;;;;;;5071799;28;20069;-80
2023/01/13 11:37:55;;;;;;;7.72;0.85;;;8.00;99.90;;;;;;5051906;28;20071;-79
2023/01/13 11:40:31;;;;;;;3.83;1.03;;;8.10;99.90;;;;;;5066303;28;20043;-80
2023/01/13 11:43:11;;;;;;;4.00;0.45;;;8.00;99.90;;;;;;5069218;28;20302;-80
2023/01/13 11:45:50;;;;;;;2.75;0.93;;;8.10;99.90;;;;;;5050045;28;20206;-79
2023/01/13 11:48:21;;;;;;;1.95;0.90;;;8.10;99.90;;;;;;5089987;27;20082;-89
2023/01/13 11:51:06;;;;;;;5.55;1.13;;;8.10;99.90;;;;;;5077573;28;20036;-80
2023/01/13 11:53:54;;;;;;;1.75;0.68;;;8.10;99.90;;;;;;5062071;28;20106;-79
2023/01/13 11:56:38;;;;;;;6.50;1.00;;;8.10;99.90;;;;;;5054821;28;20047;-80
2023/01/13 11:59:24;;;;;;;3.67;0.90;;;8.20;99.90;;;;;;5075327;28;20036;-80
2023/01/13 12:02:08;;;;;;;6.28;1.15;;;8.20;99.90;;;;;;5069117;28;20055;-81
2023/01/13 12:05:04;;;;;;;3.65;0.82;;;8.20;99.90;;;;;;5049417;28;20044;-80
2023/01/13 12:08:09;;;;;;;3.80;0.73;;;8.20;99.90;;;;;;5071311;28;20037;-79
2023/01/13 12:10:56;;;;;;;3.75;0.77;;;8.20;99.90;;;;;;5051719;28;20078;-80
2023/01/13 12:14:06;;;;;;;6.53;1.80;;;8.30;99.90;;;;;;5086313;27;20115;-80
2023/01/13 12:16:32;;;;;;;2.72;0.60;;;8.30;99.90;;;;;;5065267;28;20048;-79
2023/01/13 12:19:29;;;;;;;4.03;0.63;;;8.30;99.90;;;;;;5054000;28;20032;-79
2023/01/13 12:22:11;;;;;;;2.55;1.40;;;8.30;99.90;;;;;;5054805;28;20404;-75
2023/01/13 12:24:53;;;;;;;2.05;0.60;;;8.30;99.90;;;;;;5060788;28;20098;-84
2023/01/13 12:27:41;;;;;;;3.80;0.77;;;8.30;99.90;;;;;;5071664;28;21305;-80
2023/01/13 12:30:16;;;;;;;1.20;0.65;;;8.30;99.90;;;;;;5087639;28;20044;-82
2023/01/13 12:32:44;;;;;;;3.85;0.68;;;8.30;99.90;;;;;;5056785;28;20045;-77
2023/01/13 12:35:16;;;;;;;5.70;1.00;;;8.40;99.90;;;;;;5067211;28;20037;-79
2023/01/13 12:37:53;;;;;;;5.95;0.90;;;8.40;99.90;;;;;;5071006;28;20044;-78
2023/01/13 12:40:45;;;;;;;7.47;0.90;;;8.40;99.90;;;;;;5075495;28;20040;-78
2023/01/13 12:46:17;;;;;;;3.47;0.70;;;8.40;99.90;;;;;;5071101;28;20043;-79
2023/01/13 12:48:55;;;;;;;6.50;0.73;;;8.50;99.90;;;;;;5048360;28;20493;-80
2023/01/13 12:51:32;;;;;;;3.17;0.90;;;8.50;99.90;;;;;;5066789;28;20382;-79
2023/01/13 12:53:59;;;;;;;4.22;0.55;;;8.50;99.90;;;;;;5050245;28;20390;-78
2023/01/13 12:56:44;;;;;;;4.93;0.77;;;8.50;99.90;;;;;;5085328;27;20029;-79
2023/01/13 12:59:16;;;;;;;2.08;0.70;;;8.40;99.90;;;;;;5068518;28;20036;-78
2023/01/13 13:01:43;;;;;;;9.20;0.88;;;8.40;99.90;;;;;;5056918;28;20046;-76
2023/01/13 13:04:11;;;;;;;5.70;1.00;;;8.40;99.90;;;;;;5051401;28;20278;-78
2023/01/13 13:06:45;;;;;;;4.88;0.88;;;8.50;99.90;;;;;;5053036;28;20190;-77
2023/01/13 13:09:32;;;;;;;8.57;0.73;;;8.40;99.90;;;;;;5086134;27;20050;-77
2023/01/13 13:14:36;;;;;;;3.08;0.90;;;8.50;99.90;;;;;;5068679;28;20108;-78
2023/01/13 13:17:03;;;;;;;7.72;0.88;;;8.50;99.90;;;;;;5075314;28;20052;-79
2023/01/13 13:19:31;;;;;;;2.25;0.80;;;8.50;99.90;;;;;;5060479;28;20040;-77
2023/01/13 13:22:12;;;;;;;1.58;0.60;;;8.50;99.90;;;;;;5051864;28;20040;-78
2023/01/13 13:24:58;;;;;;;4.00;0.80;;;8.50;99.90;;;;;;5055877;28;20503;-78
2023/01/13 13:27:37;;;;;;;1.75;0.47;;;8.50;99.90;;;;;;5062157;28;20599;-78
2023/01/13 13:30:28;;;;;;;3.75;0.47;;;8.50;99.90;;;;;;5075292;28;20520;-78
2023/01/13 13:33:15;;;;;;;1.23;0.30;;;8.50;99.90;;;;;;5065667;28;20339;-77
2023/01/13 13:36:01;;;;;;;2.72;0.57;;;8.60;99.90;;;;;;5068939;28;20402;-77
2023/01/13 13:47:24;;;;;;;1.55;0.60;;;8.60;99.90;;;;;;5066888;28;20043;-79
2023/01/13 13:49:53;;;;;;;0.20;0.15;;;8.60;99.90;;;;;;5069106;28;20399;-79
2023/01/13 13:52:21;;;;;;;4.78;0.95;;;8.70;99.90;;;;;;5060113;28;20998;-79
2023/01/13 13:54:51;;;;;;;2.65;0.52;;;8.70;99.90;;;;;;5093220;27;20178;-78
2023/01/13 13:57:24;;;;;;;2.15;1.17;;;8.70;99.90;;;;;;5071330;28;20054;-78
2023/01/13 13:59:53;;;;;;;1.88;0.70;;;8.70;99.90;;;;;;5054743;28;20102;-78
2023/01/13 14:02:27;;;;;;;3.75;0.55;;;8.70;99.90;;;;;;5068008;28;20044;-79
2023/01/13 14:05:14;;;;;;;0.30;0.25;;;8.70;99.90;;;;;;5056997;28;20032;-77
2023/01/13 14:07:49;;;;;;;2.00;0.57;;;8.70;99.90;;;;;;5050202;28;20502;-78
2023/01/13 14:10:27;;;;;;;2.20;0.68;;;8.70;99.90;;;;;;5065809;28;20131;-78
2023/01/13 14:12:52;;;;;;;0.93;0.40;;;8.70;99.90;;;;;;5065085;28;21095;-78
2023/01/13 14:15:34;;;;;;;3.85;0.80;;;8.70;99.90;;;;;;5067177;28;21577;-78
2023/01/13 14:18:05;;;;;;;3.95;0.57;;;8.70;99.90;;;;;;5076016;28;20127;-78
2023/01/13 14:20:33;;;;;;;1.73;0.63;;;8.60;99.90;;;;;;5069250;28;20091;-78
2023/01/13 14:23:00;;;;;;;2.10;0.65;;;8.70;99.90;;;;;;5049238;28;20040;-78
2023/01/13 14:25:29;;;;;;;2.08;0.47;;;8.60;99.90;;;;;;5065260;28;20032;-78
2023/01/13 14:27:56;;;;;;;2.63;0.43;;;8.60;99.90;;;;;;5057049;28;20040;-77